createdAt,value
2022-08-11T00:02:06.276Z,61.44
2022-08-11T00:07:20.778Z,61.43
2022-08-11T00:12:24.270Z,61.55
2022-08-11T00:17:32.807Z,62.07
2022-08-11T00:22:39.354Z,61.52
2022-08-11T00:27:43.834Z,62.12
2022-08-11T00:32:56.290Z,62.06
2022-08-11T00:38:02.628Z,61.79
2022-08-11T00:43:20.345Z,62.38
2022-08-11T00:48:31.093Z,61.70
2022-08-11T00:53:47.458Z,61.80
2022-08-11T00:59:35.318Z,62.10
2022-08-11T01:05:15.078Z,62.09
2022-08-11T01:10:56.495Z,62.15
2022-08-11T01:16:26.578Z,62.77
2022-08-11T01:22:03.828Z,62.16
2022-08-11T01:27:33.422Z,62.49
2022-08-11T01:33:20.133Z,62.31
2022-08-11T01:39:02.348Z,62.70
2022-08-11T01:44:36.278Z,62.50
2022-08-11T01:50:06.516Z,62.79
2022-08-11T01:55:16.994Z,63.00
2022-08-11T02:00:23.645Z,62.89
2022-08-11T02:05:46.129Z,63.28
2022-08-11T02:11:15.104Z,62.89
2022-08-11T02:16:29.356Z,62.57
2022-08-11T02:22:00.753Z,62.73
2022-08-11T02:27:09.684Z,62.95
2022-08-11T02:32:37.086Z,62.48
2022-08-11T02:37:51.622Z,62.10
2022-08-11T02:43:10.407Z,62.54
2022-08-11T02:48:43.875Z,62.56
2022-08-11T02:53:57.970Z,62.45
2022-08-11T02:59:27.722Z,61.84
2022-08-11T03:04:39.052Z,62.06
2022-08-11T03:09:48.453Z,61.75
2022-08-11T03:15:16.991Z,61.39
2022-08-11T03:20:33.164Z,60.50
2022-08-11T03:25:50.577Z,60.07
2022-08-11T03:31:02.989Z,59.77
2022-08-11T03:36:14.481Z,59.13
2022-08-11T03:42:03.223Z,58.53
2022-08-11T03:47:32.147Z,57.81
2022-08-11T03:52:59.811Z,54.99
2022-08-11T03:58:46.148Z,39.42
2022-08-11T04:04:11.231Z,32.47
2022-08-11T04:09:49.347Z,28.85
2022-08-11T04:15:50.889Z,26.22
2022-08-11T04:21:28.054Z,23.65
2022-08-11T04:27:19.204Z,21.63
2022-08-11T04:32:40.476Z,20.23
2022-08-11T04:38:07.393Z,18.40
2022-08-11T04:44:02.151Z,17.66
2022-08-11T04:49:54.603Z,16.88
2022-08-11T04:55:38.156Z,15.69
2022-08-11T05:01:14.300Z,14.35
2022-08-11T05:06:59.495Z,14.07
2022-08-11T05:12:33.521Z,14.42
2022-08-11T05:18:13.841Z,14.70
2022-08-11T05:23:53.024Z,13.93
2022-08-11T05:29:21.137Z,12.73
2022-08-11T05:34:46.000Z,12.36
2022-08-11T05:40:10.133Z,11.68
2022-08-11T05:46:03.999Z,10.70
2022-08-11T05:51:23.063Z,10.77
2022-08-11T05:56:35.322Z,10.94
2022-08-11T06:01:42.850Z,11.83
2022-08-11T06:06:52.488Z,10.66
2022-08-11T06:11:59.687Z,9.36
2022-08-11T06:17:06.734Z,9.35
2022-08-11T06:22:12.465Z,8.94
2022-08-11T06:27:21.545Z,10.18
2022-08-11T06:32:29.840Z,10.20
2022-08-11T06:37:46.827Z,10.12
2022-08-11T06:42:56.180Z,9.05
2022-08-11T06:48:03.181Z,8.98
2022-08-11T06:53:10.135Z,9.32
2022-08-11T06:58:34.853Z,9.53
2022-08-11T07:03:45.623Z,9.06
2022-08-11T07:09:36.835Z,9.74
2022-08-11T07:15:05.855Z,8.90
2022-08-11T07:20:30.182Z,9.13
2022-08-11T07:25:54.999Z,8.89
2022-08-11T07:31:03.068Z,10.64
2022-08-11T07:36:12.853Z,10.81
2022-08-11T07:41:18.581Z,11.57
2022-08-11T07:46:40.282Z,10.59
2022-08-11T07:52:03.301Z,13.59
2022-08-11T07:57:46.107Z,16.83
2022-08-11T08:03:08.404Z,15.81
2022-08-11T08:08:33.513Z,14.23
2022-08-11T08:13:55.617Z,11.70
2022-08-11T08:18:59.139Z,11.08
2022-08-11T08:24:05.278Z,12.07
2022-08-11T08:29:27.213Z,12.71
2022-08-11T08:34:32.316Z,15.70
2022-08-11T08:39:38.980Z,16.03
2022-08-11T08:44:45.158Z,17.41
2022-08-11T08:49:51.885Z,18.80
2022-08-11T08:54:59.449Z,19.54
2022-08-11T09:00:04.077Z,20.91
2022-08-11T09:05:10.102Z,21.21
2022-08-11T09:10:17.487Z,21.14
2022-08-11T09:15:22.517Z,22.98
2022-08-11T09:20:29.483Z,23.16
2022-08-11T09:25:52.478Z,22.04
2022-08-11T09:30:56.070Z,23.01
2022-08-11T09:36:23.060Z,22.53
2022-08-11T09:41:27.966Z,22.78
2022-08-11T09:46:54.059Z,23.71
2022-08-11T09:52:05.296Z,23.68
2022-08-11T09:57:27.996Z,22.87
2022-08-11T10:02:33.897Z,22.94
2022-08-11T10:07:38.444Z,23.34
2022-08-11T10:12:49.940Z,22.50
2022-08-11T10:18:17.348Z,23.40
2022-08-11T10:24:00.070Z,24.58
2022-08-11T10:29:24.713Z,25.04
2022-08-11T10:34:37.215Z,25.50
2022-08-11T10:39:45.089Z,26.86
2022-08-11T10:44:57.227Z,26.72
2022-08-11T10:50:18.968Z,25.95
2022-08-11T10:55:39.815Z,25.63
2022-08-11T11:00:46.442Z,25.50
2022-08-11T11:06:28.608Z,26.48
2022-08-11T11:11:18.757Z,26.22
2022-08-11T11:16:42.243Z,26.07
2022-08-11T11:21:47.907Z,24.73
2022-08-11T11:27:00.001Z,25.14
2022-08-11T11:32:19.538Z,24.73
2022-08-11T11:37:24.974Z,24.99
2022-08-11T11:42:29.754Z,24.54
2022-08-11T11:47:35.940Z,24.83
2022-08-11T11:52:40.918Z,24.76
2022-08-11T11:58:02.694Z,23.51
2022-08-11T12:03:11.354Z,23.21
2022-08-11T12:08:16.538Z,25.00
2022-08-11T12:13:38.029Z,25.33
2022-08-11T12:18:46.083Z,26.18
2022-08-11T12:24:07.840Z,25.82
2022-08-11T12:29:13.458Z,26.61
2022-08-11T12:34:19.079Z,26.29
2022-08-11T12:40:16.310Z,26.44
2022-08-11T12:45:31.866Z,26.06
2022-08-11T12:50:54.614Z,26.76
2022-08-11T12:56:29.336Z,26.62
2022-08-11T13:01:49.959Z,27.19
2022-08-11T13:06:55.446Z,26.43
2022-08-11T13:12:16.570Z,26.47
2022-08-11T13:17:40.203Z,26.45
2022-08-11T13:22:50.335Z,26.07
2022-08-11T13:27:57.071Z,27.47
2022-08-11T13:33:06.492Z,26.56
2022-08-11T13:38:18.458Z,27.16
2022-08-11T13:43:25.169Z,27.28
2022-08-11T13:48:28.865Z,27.14
2022-08-11T13:53:34.304Z,26.58
2022-08-11T13:58:40.398Z,27.48
2022-08-11T14:04:31.117Z,27.12
2022-08-11T14:09:11.860Z,27.55
2022-08-11T14:14:22.470Z,27.11
2022-08-11T14:19:27.888Z,27.66
2022-08-11T14:24:33.727Z,28.04
2022-08-11T14:29:47.889Z,28.32
2022-08-11T14:34:53.456Z,28.45
2022-08-11T14:40:03.214Z,27.69
2022-08-11T14:45:57.581Z,29.50
2022-08-11T14:50:54.683Z,29.53
2022-08-11T14:56:17.664Z,29.02
2022-08-11T15:01:38.955Z,29.00
2022-08-11T15:06:43.147Z,28.99
2022-08-11T15:12:32.687Z,28.89
2022-08-11T15:17:43.677Z,29.08
2022-08-11T15:23:04.626Z,28.82
2022-08-11T15:28:28.573Z,29.09
2022-08-11T15:33:50.116Z,30.21
2022-08-11T15:39:08.109Z,30.45
2022-08-11T15:45:00.952Z,30.77
2022-08-11T15:50:11.884Z,31.46
2022-08-11T15:55:18.901Z,31.72
2022-08-11T16:00:42.061Z,32.12
2022-08-11T16:05:52.870Z,32.85
2022-08-11T16:10:58.827Z,32.75
2022-08-11T16:16:18.887Z,33.31
2022-08-11T16:21:26.192Z,33.59
2022-08-11T16:27:08.361Z,34.16
2022-08-11T16:32:23.311Z,34.59
2022-08-11T16:37:45.471Z,34.91
2022-08-11T16:43:11.103Z,35.52
2022-08-11T16:48:37.367Z,36.20
2022-08-11T16:53:59.683Z,37.55
2022-08-11T16:59:17.626Z,39.10
2022-08-11T17:04:48.691Z,41.73
2022-08-11T17:10:39.149Z,42.17
2022-08-11T17:15:55.785Z,42.81
2022-08-11T17:21:01.556Z,43.66
2022-08-11T17:26:06.315Z,44.85
2022-08-11T17:31:28.961Z,45.41
2022-08-11T17:36:35.225Z,46.09
2022-08-11T17:41:56.850Z,46.52
2022-08-11T17:47:17.873Z,47.02
2022-08-11T17:52:47.299Z,47.74
2022-08-11T17:58:09.586Z,48.76
2022-08-11T18:03:33.895Z,49.01
2022-08-11T18:08:59.496Z,49.76
2022-08-11T18:14:22.530Z,50.31
2022-08-11T18:19:43.379Z,50.60
2022-08-11T18:25:08.951Z,50.69
2022-08-11T18:30:30.611Z,50.92
2022-08-11T18:35:53.636Z,51.25
2022-08-11T18:41:17.635Z,51.37
2022-08-11T18:46:43.565Z,51.97
2022-08-11T18:52:11.263Z,52.24
2022-08-11T18:57:37.294Z,52.40
2022-08-11T19:03:11.486Z,52.13
2022-08-11T19:08:32.970Z,52.71
2022-08-11T19:13:56.187Z,53.21
2022-08-11T19:19:17.724Z,52.92
2022-08-11T19:24:39.010Z,53.54
2022-08-11T19:30:12.117Z,54.84
2022-08-11T19:35:35.058Z,55.01
2022-08-11T19:40:57.395Z,55.51
2022-08-11T19:46:20.824Z,55.52
2022-08-11T19:51:43.332Z,56.30
2022-08-11T19:57:05.731Z,56.88
2022-08-11T20:02:28.422Z,56.99
2022-08-11T20:07:50.784Z,57.50
2022-08-11T20:13:13.694Z,57.54
2022-08-11T20:18:46.786Z,57.29
2022-08-11T20:24:07.886Z,57.13
2022-08-11T20:29:29.825Z,57.18
2022-08-11T20:34:55.051Z,57.24
2022-08-11T20:40:17.629Z,57.37
2022-08-11T20:45:53.538Z,57.39
2022-08-11T20:51:20.415Z,58.08
2022-08-11T20:56:46.879Z,57.97
2022-08-11T21:02:09.610Z,58.19
2022-08-11T21:07:35.307Z,58.44
2022-08-11T21:13:25.234Z,58.47
2022-08-11T21:18:45.253Z,58.67
2022-08-11T21:24:09.818Z,59.42
2022-08-11T21:29:32.337Z,59.80
2022-08-11T21:34:54.009Z,60.03
2022-08-11T21:40:17.846Z,60.34
2022-08-11T21:45:39.659Z,60.23
2022-08-11T21:51:00.617Z,60.22
2022-08-11T21:56:25.541Z,60.37
2022-08-11T22:01:50.741Z,60.70
2022-08-11T22:07:12.021Z,60.91
2022-08-11T22:12:37.077Z,60.90
2022-08-11T22:17:59.330Z,60.99
2022-08-11T22:23:21.065Z,61.07
2022-08-11T22:28:44.019Z,61.66
2022-08-11T22:34:04.957Z,61.88
2022-08-11T22:39:26.830Z,62.02
2022-08-11T22:44:49.155Z,61.79
2022-08-11T22:50:15.992Z,62.48
2022-08-11T22:55:38.960Z,61.87
2022-08-11T23:01:01.558Z,61.73
2022-08-11T23:06:23.645Z,61.88
2022-08-11T23:12:05.978Z,61.67
2022-08-11T23:17:27.413Z,62.02
2022-08-11T23:22:50.731Z,62.33
2022-08-11T23:28:12.540Z,62.48
2022-08-11T23:33:36.615Z,62.77
2022-08-11T23:38:58.033Z,62.32
2022-08-11T23:44:20.463Z,62.38
2022-08-11T23:49:43.479Z,62.47
2022-08-11T23:55:04.878Z,62.99
